Time;durP1;ratioP1;P1;durP2;ratioP2;P2;SDS_P1;SDS_P2;PMS_P1;PMS_P2;Temp;Humidity;BMP_temperature;BMP_pressure;BME280_temperature;BME280_humidity;BME280_pressure;Samples;Min_cycle;Max_cycle;Signal;HPM_P1;HPM_P2
2022/12/20 00:01:22;;;;;;;13.80;10.07;;;;;;;2.40;70.57;101815.94;4995265;28;20473;-69
2022/12/20 00:03:50;;;;;;;15.07;11.13;;;;;;;2.45;70.62;101811.28;4994894;28;20441;-69
2022/12/20 00:06:18;;;;;;;16.23;10.40;;;;;;;2.49;70.37;101815.41;4994927;28;20485;-70
2022/12/20 00:08:45;;;;;;;12.37;9.63;;;;;;;2.50;70.95;101813.66;4994076;28;20449;-70
2022/12/20 00:11:12;;;;;;;14.57;10.53;;;;;;;2.49;70.71;101814.59;4995583;28;20438;-70
2022/12/20 00:13:40;;;;;;;13.97;10.50;;;;;;;2.52;69.88;101811.75;4995292;28;20445;-69
2022/12/20 00:16:08;;;;;;;11.70;9.50;;;;;;;2.55;69.61;101809.84;4994949;28;20454;-70
2022/12/20 00:18:35;;;;;;;14.20;9.00;;;;;;;2.20;70.48;101810.97;4994604;28;20446;-70
2022/12/20 00:21:03;;;;;;;10.43;8.93;;;;;;;2.00;70.92;101811.25;4994806;28;20981;-69
2022/12/20 00:23:30;;;;;;;13.13;10.37;;;;;;;1.52;73.55;101802.63;4995004;28;20876;-69
2022/12/20 00:26:01;;;;;;;13.80;9.97;;;;;;;1.75;73.56;101794.38;4993955;28;20442;-69
2022/12/20 00:28:28;;;;;;;13.90;10.10;;;;;;;1.47;74.62;101792.38;4994550;28;20410;-70
2022/12/20 00:30:56;;;;;;;11.70;9.83;;;;;;;1.43;75.09;101796.09;4994743;28;20454;-69
2022/12/20 00:33:23;;;;;;;12.47;9.87;;;;;;;1.57;74.44;101793.59;4994812;28;20439;-70
2022/12/20 00:35:50;;;;;;;16.63;10.77;;;;;;;1.69;73.71;101790.31;4994386;28;20446;-69
2022/12/20 00:38:17;;;;;;;11.57;9.03;;;;;;;1.80;73.62;101797.56;4994270;28;20456;-69
2022/12/20 00:40:43;;;;;;;11.70;9.47;;;;;;;1.74;73.04;101814.47;4994619;28;20473;-69
2022/12/20 00:43:10;;;;;;;9.90;8.90;;;;;;;1.79;73.02;101801.97;4993169;28;20527;-69
2022/12/20 00:45:37;;;;;;;13.37;9.57;;;;;;;1.60;73.36;101801.28;4994580;28;20810;-69
2022/12/20 00:48:06;;;;;;;11.20;9.73;;;;;;;1.61;73.52;101805.59;4994612;28;20499;-69
2022/12/20 00:50:32;;;;;;;13.90;9.60;;;;;;;1.63;73.93;101801.09;4994588;28;20441;-69
2022/12/20 00:52:59;;;;;;;19.07;10.00;;;;;;;1.49;74.06;101793.16;4994214;28;20441;-69
2022/12/20 00:55:26;;;;;;;15.07;10.10;;;;;;;1.44;74.80;101789.94;4994237;28;20577;-69
2022/12/20 00:57:52;;;;;;;13.57;9.73;;;;;;;1.48;75.95;101786.22;4993516;28;20446;-69
2022/12/20 01:00:20;;;;;;;16.90;11.30;;;;;;;1.32;76.97;101777.50;4993759;28;20485;-69
2022/12/20 01:02:47;;;;;;;15.90;10.40;;;;;;;1.22;77.68;101775.47;4994324;28;20437;-69
2022/12/20 01:05:15;;;;;;;12.97;10.97;;;;;;;1.21;78.31;101772.00;4994063;28;20529;-69
2022/12/20 01:07:42;;;;;;;14.23;11.53;;;;;;;1.33;78.43;101776.56;4994016;28;20857;-69
2022/12/20 01:10:10;;;;;;;14.53;11.80;;;;;;;1.27;78.53;101771.69;4993668;28;20948;-70
2022/12/20 01:12:37;;;;;;;16.23;11.17;;;;;;;1.28;78.78;101768.13;4993976;28;20437;-70
2022/12/20 01:15:05;;;;;;;21.77;12.57;;;;;;;1.35;78.88;101764.22;4992496;28;20524;-70
2022/12/20 01:17:32;;;;;;;18.33;12.27;;;;;;;1.29;79.32;101761.09;4993411;28;20444;-70
2022/12/20 01:19:59;;;;;;;17.87;12.50;;;;;;;1.24;79.53;101755.28;4993444;28;20466;-69
2022/12/20 01:22:27;;;;;;;14.83;12.23;;;;;;;1.35;79.31;101752.94;4993627;28;20441;-69
2022/12/20 01:24:54;;;;;;;19.07;12.10;;;;;;;1.43;79.36;101761.22;4993370;28;20512;-69
2022/12/20 01:27:20;;;;;;;18.43;12.33;;;;;;;1.14;79.99;101749.69;4993777;28;20445;-70
2022/12/20 01:29:47;;;;;;;16.70;11.23;;;;;;;1.00;80.44;101746.94;4993230;28;20456;-70
2022/12/20 01:32:14;;;;;;;19.03;11.90;;;;;;;0.94;80.50;101733.34;4992275;28;20961;-70
2022/12/20 01:34:41;;;;;;;20.00;10.80;;;;;;;1.02;81.04;101739.03;4993542;28;20451;-69
2022/12/20 01:37:09;;;;;;;16.97;10.97;;;;;;;1.12;80.85;101746.31;4993735;28;20455;-69
2022/12/20 01:39:37;;;;;;;16.13;11.07;;;;;;;1.22;80.22;101731.78;4993677;28;20444;-69
2022/12/20 01:42:04;;;;;;;23.27;11.87;;;;;;;1.27;80.05;101729.78;4992983;28;20485;-69
2022/12/20 01:44:56;;;;;;;11.60;10.27;;;;;;;1.27;79.64;101719.31;4993276;28;20445;-69
2022/12/20 01:47:25;;;;;;;17.20;10.90;;;;;;;1.31;79.59;101731.28;4994240;28;20492;-68
2022/12/20 01:49:56;;;;;;;17.17;11.17;;;;;;;1.29;79.21;101730.53;4991826;28;20449;-68
2022/12/20 01:52:28;;;;;;;16.20;11.43;;;;;;;1.25;79.69;101729.00;4993558;28;20438;-69
2022/12/20 01:55:02;;;;;;;12.47;9.90;;;;;;;1.30;78.97;101718.31;4993185;28;20442;-69
2022/12/20 01:57:35;;;;;;;18.50;10.97;;;;;;;1.30;78.41;101719.13;4992918;28;20417;-69
2022/12/20 02:00:03;;;;;;;14.03;10.60;;;;;;;1.35;79.14;101711.88;4992879;28;20444;-69
2022/12/20 02:02:31;;;;;;;13.53;9.90;;;;;;;1.42;78.77;101718.47;4992773;28;20473;-69
2022/12/20 02:04:58;;;;;;;15.33;9.57;;;;;;;1.47;78.58;101721.66;4992702;28;20796;-69
2022/12/20 02:07:29;;;;;;;16.20;11.03;;;;;;;1.48;77.51;101714.69;4991711;28;20616;-69
2022/12/20 02:10:00;;;;;;;18.50;10.83;;;;;;;1.48;77.92;101712.91;4992777;28;20532;-69
2022/12/20 02:12:31;;;;;;;17.93;10.37;;;;;;;1.48;78.24;101707.69;4992847;28;20433;-69
2022/12/20 02:15:08;;;;;;;16.07;9.80;;;;;;;1.54;77.42;101711.69;4992643;28;20492;-69
2022/12/20 02:17:45;;;;;;;13.33;10.43;;;;;;;1.49;77.51;101719.84;4992772;28;20468;-69
2022/12/20 02:20:37;;;;;;;16.60;10.77;;;;;;;1.43;77.03;101709.69;4992993;28;20547;-69
2022/12/20 02:23:21;;;;;;;14.33;10.03;;;;;;;1.31;78.20;101704.28;4992102;28;20512;-69
2022/12/20 02:26:07;;;;;;;18.57;10.30;;;;;;;1.15;79.01;101701.66;4991473;28;20480;-69
2022/12/20 02:28:54;;;;;;;13.70;10.67;;;;;;;1.04;80.83;101700.53;4993067;28;20437;-69
2022/12/20 02:31:27;;;;;;;17.87;11.00;;;;;;;1.01;80.45;101695.47;4973107;28;20501;-69
2022/12/20 02:33:57;;;;;;;14.50;10.30;;;;;;;1.03;80.75;101702.31;4992444;28;20492;-69
2022/12/20 02:36:25;;;;;;;14.17;10.37;;;;;;;0.93;81.06;101698.47;4993620;28;20557;-70
2022/12/20 02:38:52;;;;;;;16.30;10.87;;;;;;;0.87;81.25;101704.06;4992801;28;20451;-70
2022/12/20 02:41:23;;;;;;;28.80;12.17;;;;;;;0.92;81.74;101693.31;4991374;28;20965;-70
2022/12/20 02:46:42;;;;;;;17.47;10.93;;;;;;;0.93;82.11;101695.88;4992168;28;20476;-69
2022/12/20 02:49:14;;;;;;;15.77;11.00;;;;;;;1.00;82.49;101692.00;4992675;28;20434;-70
2022/12/20 02:51:44;;;;;;;12.47;10.03;;;;;;;0.99;81.80;101692.94;4992412;28;20949;-70
2022/12/20 02:54:12;;;;;;;17.23;11.17;;;;;;;0.93;81.93;101688.03;4992227;28;21016;-69
2022/12/20 02:56:43;;;;;;;17.77;12.03;;;;;;;0.99;81.73;101687.72;4993164;28;20504;-70
2022/12/20 02:59:15;;;;;;;21.93;11.87;;;;;;;1.01;81.68;101685.84;4991718;28;20456;-70
2022/12/20 03:01:48;;;;;;;22.00;10.83;;;;;;;1.01;81.42;101690.25;4992914;28;20465;-69
2022/12/20 03:04:16;;;;;;;20.00;11.20;;;;;;;0.84;81.67;101688.50;4993011;28;20433;-70
2022/12/20 03:06:56;;;;;;;24.03;10.77;;;;;;;0.72;82.39;101677.84;4992298;28;20433;-71
2022/12/20 03:09:23;;;;;;;15.40;10.87;;;;;;;0.78;83.23;101674.91;4992076;28;20440;-70
2022/12/20 03:11:50;;;;;;;16.70;11.27;;;;;;;0.81;81.99;101680.81;4992968;28;20449;-70
2022/12/20 03:14:17;;;;;;;17.87;11.50;;;;;;;0.83;81.81;101681.59;4992146;28;21016;-69
2022/12/20 03:16:45;;;;;;;19.87;12.13;;;;;;;0.72;82.59;101656.91;4991421;28;20454;-70
2022/12/20 03:19:12;;;;;;;18.60;11.17;;;;;;;0.84;82.46;101674.56;4995188;28;20488;-70
2022/12/20 03:21:38;;;;;;;33.10;13.27;;;;;;;0.83;82.85;101678.97;4996030;28;20491;-70
2022/12/20 03:24:05;;;;;;;19.63;11.77;;;;;;;0.73;82.66;101667.28;4996234;28;20503;-70
2022/12/20 03:26:32;;;;;;;25.07;11.60;;;;;;;0.77;84.06;101665.38;4995619;28;21030;-70
2022/12/20 03:28:59;;;;;;;18.47;11.80;;;;;;;0.78;83.61;101665.31;4995815;28;20450;-70
2022/12/20 03:31:26;;;;;;;18.40;11.07;;;;;;;0.84;84.45;101672.81;4994784;28;20799;-69
2022/12/20 03:33:54;;;;;;;23.30;12.63;;;;;;;0.90;84.32;101671.66;4995451;28;20512;-68
2022/12/20 03:36:22;;;;;;;21.80;13.37;;;;;;;0.97;84.34;101673.03;4995825;28;20434;-69
2022/12/20 03:38:49;;;;;;;24.47;13.13;;;;;;;1.02;82.59;101684.91;4995821;28;20438;-69
2022/12/20 03:41:16;;;;;;;22.80;14.17;;;;;;;1.09;82.77;101683.66;4995607;28;20469;-69
2022/12/20 03:43:43;;;;;;;25.10;14.00;;;;;;;1.15;82.57;101690.34;4995966;28;20499;-70
2022/12/20 03:46:09;;;;;;;19.40;11.70;;;;;;;1.15;81.63;101683.34;4995338;28;20879;-70
2022/12/20 03:48:36;;;;;;;23.63;13.00;;;;;;;1.14;81.46;101692.09;4994535;28;20457;-69
2022/12/20 03:51:05;;;;;;;18.43;12.13;;;;;;;1.13;80.87;101690.41;4994969;28;20469;-69
2022/12/20 03:53:31;;;;;;;20.20;12.20;;;;;;;1.23;81.74;101694.25;4995426;28;20436;-69
2022/12/20 03:55:58;;;;;;;23.80;12.43;;;;;;;1.30;80.60;101686.91;4995253;28;21031;-70
2022/12/20 03:58:25;;;;;;;18.80;12.20;;;;;;;1.28;80.47;101689.59;4995313;28;20442;-69
2022/12/20 04:00:51;;;;;;;19.00;12.40;;;;;;;1.29;79.86;101693.88;4995128;28;20445;-69
2022/12/20 04:03:18;;;;;;;19.63;12.47;;;;;;;1.34;80.63;101694.47;4995337;28;20440;-70
2022/12/20 04:05:45;;;;;;;25.23;12.67;;;;;;;1.32;79.86;101691.13;4993940;28;21040;-70
2022/12/20 04:08:13;;;;;;;25.07;12.93;;;;;;;1.29;79.93;101690.41;4990666;28;20525;-70
2022/12/20 04:13:20;;;;;;;27.53;13.00;;;;;;;1.30;80.56;101687.72;4994562;28;20444;-70
2022/12/20 04:15:47;;;;;;;36.97;21.53;;;;;;;1.30;79.89;101702.59;4994772;28;20504;-71
2022/12/20 04:18:14;;;;;;;39.27;21.07;;;;;;;1.29;79.83;101701.75;4995548;28;20513;-70
2022/12/20 04:20:41;;;;;;;30.07;15.33;;;;;;;1.37;80.14;101701.31;4994997;28;20473;-70
2022/12/20 04:23:08;;;;;;;18.63;12.23;;;;;;;1.45;79.67;101697.38;4993437;28;20473;-70
2022/12/20 04:25:36;;;;;;;24.93;15.07;;;;;;;1.47;79.66;101703.34;4994688;28;20500;-70
2022/12/20 04:28:02;;;;;;;37.80;20.27;;;;;;;1.49;77.81;101698.88;4994254;28;20872;-69
2022/12/20 04:30:29;;;;;;;30.10;15.63;;;;;;;1.45;77.81;101697.38;4994666;28;20441;-70
2022/12/20 04:32:56;;;;;;;21.07;13.03;;;;;;;1.47;78.16;101705.97;4994449;28;20806;-69
2022/12/20 04:35:22;;;;;;;24.43;12.33;;;;;;;1.42;77.66;101708.00;4994817;28;20454;-69
2022/12/20 04:37:49;;;;;;;20.80;12.83;;;;;;;1.42;77.81;101707.16;4994299;28;20445;-70
2022/12/20 04:40:16;;;;;;;20.00;12.60;;;;;;;1.47;76.67;101705.97;4993327;28;20858;-71
2022/12/20 04:42:44;;;;;;;24.37;12.77;;;;;;;1.51;77.23;101709.28;4994370;28;20473;-70
2022/12/20 04:45:11;;;;;;;22.40;12.83;;;;;;;1.38;75.42;101711.72;4994415;28;20434;-70
2022/12/20 04:47:38;;;;;;;19.43;13.73;;;;;;;1.43;76.06;101709.69;4994480;28;20441;-70
2022/12/20 04:50:07;;;;;;;22.43;13.50;;;;;;;1.44;76.42;101705.28;4994289;28;20930;-69
2022/12/20 04:55:18;;;;;;;25.53;12.87;;;;;;;1.37;77.27;101701.31;4994944;28;20413;-69
2022/12/20 04:57:46;;;;;;;22.10;13.67;;;;;;;1.36;77.70;101692.63;4992792;28;21019;-69
2022/12/20 05:00:14;;;;;;;28.63;13.23;;;;;;;1.21;76.82;101672.53;4993838;28;20500;-69
2022/12/20 05:02:41;;;;;;;29.57;13.53;;;;;;;1.28;76.32;101694.84;4993978;28;20473;-69
2022/12/20 05:05:09;;;;;;;26.47;13.47;;;;;;;1.19;77.49;101674.41;4993569;28;20825;-69
2022/12/20 05:07:36;;;;;;;25.10;13.40;;;;;;;1.18;77.80;101691.00;4993593;28;21015;-69
2022/12/20 05:10:03;;;;;;;28.27;14.53;;;;;;;1.11;78.17;101692.28;4994010;28;20480;-69
2022/12/20 05:12:29;;;;;;;26.90;14.27;;;;;;;0.99;79.46;101687.72;4994036;28;20512;-68
2022/12/20 05:14:57;;;;;;;28.47;14.70;;;;;;;0.87;80.55;101677.91;4992870;28;20469;-69
2022/12/20 05:17:24;;;;;;;30.13;15.40;;;;;;;0.79;80.71;101674.84;4993447;28;21031;-69
2022/12/20 05:19:51;;;;;;;42.93;15.73;;;;;;;0.75;81.23;101677.69;4993724;28;20466;-70
2022/12/20 05:27:45;;;;;;;49.97;19.63;;;;;;;0.26;84.46;101668.94;4993576;28;20813;-69
2022/12/20 05:30:15;;;;;;;37.83;19.27;;;;;;;0.17;85.20;101669.41;4993403;28;20956;-69
2022/12/20 05:32:41;;;;;;;58.43;28.63;;;;;;;0.07;85.95;101660.31;4992496;28;20464;-71
2022/12/20 05:35:09;;;;;;;224.87;85.80;;;;;;;-0.04;86.13;101660.03;4992063;28;20496;-70
2022/12/20 05:37:36;;;;;;;120.63;51.00;;;;;;;-0.09;86.99;101656.78;4992431;28;20438;-70
2022/12/20 05:40:03;;;;;;;248.23;108.30;;;;;;;-0.12;87.27;101657.78;4991866;28;20514;-69
2022/12/20 05:42:30;;;;;;;231.57;96.37;;;;;;;-0.03;87.07;101661.72;4992147;28;20473;-71
2022/12/20 05:44:57;;;;;;;229.50;89.13;;;;;;;-0.09;87.11;101641.09;4993076;28;20442;-71
2022/12/20 05:47:25;;;;;;;152.17;59.10;;;;;;;0.10;86.95;101662.78;4993034;28;20442;-72
2022/12/20 05:49:52;;;;;;;111.77;42.07;;;;;;;0.17;86.87;101664.16;4991321;28;20449;-71
2022/12/20 05:52:18;;;;;;;82.13;34.30;;;;;;;0.25;86.80;101664.63;4992186;28;20897;-71
2022/12/20 05:54:45;;;;;;;96.50;38.87;;;;;;;0.29;86.15;101667.91;4992232;28;20445;-71
2022/12/20 05:57:13;;;;;;;69.77;32.13;;;;;;;0.33;86.14;101670.31;4992278;28;20434;-72
2022/12/20 05:59:40;;;;;;;84.93;31.57;;;;;;;0.38;85.76;101667.44;4992681;28;20521;-71
2022/12/20 06:02:07;;;;;;;82.77;32.73;;;;;;;0.42;85.40;101671.59;4992579;28;20501;-73
2022/12/20 06:04:35;;;;;;;120.50;32.20;;;;;;;0.30;86.05;101667.00;4990191;28;20437;-72
2022/12/20 06:07:02;;;;;;;86.40;38.47;;;;;;;0.23;86.58;101674.31;4991291;28;20439;-71
2022/12/20 06:09:30;;;;;;;154.30;68.20;;;;;;;0.26;86.87;101668.06;4992026;28;20441;-72
2022/12/20 06:11:56;;;;;;;97.80;36.00;;;;;;;0.32;86.36;101667.78;4992119;28;20464;-73
2022/12/20 06:14:23;;;;;;;63.77;27.67;;;;;;;0.47;86.37;101667.81;4992275;28;20438;-70
2022/12/20 06:16:50;;;;;;;101.20;26.30;;;;;;;0.52;85.50;101671.03;4992743;28;20550;-71
2022/12/20 06:19:17;;;;;;;61.03;24.77;;;;;;;0.59;85.74;101669.81;4993003;28;20438;-67
2022/12/20 06:21:45;;;;;;;66.43;25.27;;;;;;;0.73;85.64;101675.13;4992694;28;20479;-73
2022/12/20 06:24:11;;;;;;;68.90;27.80;;;;;;;0.89;85.53;101676.03;4991112;28;20895;-71
2022/12/20 06:26:38;;;;;;;59.27;27.50;;;;;;;0.99;84.33;101679.00;5009005;28;20985;-73
2022/12/20 06:29:09;;;;;;;53.67;28.70;;;;;;;0.96;83.53;101677.41;4992161;28;20946;-70
2022/12/20 06:31:35;;;;;;;65.50;34.23;;;;;;;0.83;83.59;101683.34;4992540;28;20441;-71
2022/12/20 06:34:02;;;;;;;68.27;37.50;;;;;;;0.84;83.83;101675.44;4992451;28;20504;-71
2022/12/20 06:36:29;;;;;;;66.07;33.50;;;;;;;0.89;84.13;101681.25;4992274;28;20450;-70
2022/12/20 06:38:57;;;;;;;56.00;27.43;;;;;;;0.90;83.96;101677.72;4992688;28;20441;-70
2022/12/20 06:41:23;;;;;;;52.20;25.50;;;;;;;0.94;84.03;101679.22;4991560;28;20445;-73
2022/12/20 06:43:50;;;;;;;117.50;27.80;;;;;;;1.09;86.09;101678.41;4991638;28;20540;-69
2022/12/20 06:46:17;;;;;;;55.50;25.60;;;;;;;1.27;83.66;101682.69;4992378;28;21011;-69
2022/12/20 06:48:44;;;;;;;64.97;29.87;;;;;;;1.34;82.92;101675.34;4991832;28;20453;-69
2022/12/20 06:51:11;;;;;;;55.00;27.43;;;;;;;1.42;82.34;101673.13;4992134;28;20465;-68
2022/12/20 06:53:37;;;;;;;63.83;27.77;;;;;;;1.65;82.31;101673.53;4996179;28;20544;-67
2022/12/20 06:56:06;;;;;;;68.83;30.93;;;;;;;1.86;80.29;101685.41;4995696;28;20462;-68
2022/12/20 06:58:33;;;;;;;144.80;40.73;;;;;;;2.20;87.60;101666.78;4991344;28;20960;-71
2022/12/20 07:00:59;;;;;;;75.10;30.80;;;;;;;2.45;79.79;101671.44;4994622;28;20495;-68
2022/12/20 07:03:26;;;;;;;53.80;28.13;;;;;;;2.47;78.75;101680.91;4994769;28;21105;-71
2022/12/20 07:05:54;;;;;;;62.27;27.47;;;;;;;2.47;77.99;101685.28;4995742;28;20453;-68
2022/12/20 07:08:21;;;;;;;76.37;32.00;;;;;;;2.43;77.23;101671.53;4994979;28;20830;-69
2022/12/20 07:10:48;;;;;;;74.23;32.90;;;;;;;2.60;77.33;101673.13;4995472;28;20445;-69
2022/12/20 07:13:17;;;;;;;60.57;26.47;;;;;;;2.77;76.97;101681.66;4994847;28;20507;-72
2022/12/20 07:15:43;;;;;;;53.47;24.67;;;;;;;2.88;77.20;101687.13;4993847;28;20444;-73
2022/12/20 07:18:10;;;;;;;49.43;26.90;;;;;;;3.26;74.41;101682.97;4993523;28;20442;-72
2022/12/20 07:20:37;;;;;;;34.63;20.07;;;;;;;3.64;73.99;101689.25;4993933;28;20543;-69
2022/12/20 07:23:03;;;;;;;39.77;18.93;;;;;;;4.00;71.50;101689.47;4994528;28;20508;-73
2022/12/20 07:25:30;;;;;;;39.70;17.80;;;;;;;4.22;69.84;101692.41;4993908;28;20524;-72
2022/12/20 07:27:57;;;;;;;28.40;17.73;;;;;;;4.42;69.73;101691.88;4993974;28;20529;-71
2022/12/20 07:30:26;;;;;;;24.67;16.70;;;;;;;4.51;67.83;101693.91;4995141;28;20448;-70
2022/12/20 07:32:53;;;;;;;27.77;16.60;;;;;;;4.63;68.73;101693.09;4994265;28;20445;-72
2022/12/20 07:35:20;;;;;;;83.23;21.47;;;;;;;4.82;66.77;101692.66;4995248;28;20206;-72
2022/12/20 07:37:46;;;;;;;21.60;16.13;;;;;;;4.96;65.81;101688.13;4995108;28;20224;-71
2022/12/20 07:40:15;;;;;;;28.17;16.00;;;;;;;5.30;64.89;101687.44;4994760;28;20194;-75
2022/12/20 07:42:41;;;;;;;33.40;18.77;;;;;;;5.51;65.26;101682.41;4995121;28;20502;-76
2022/12/20 07:45:09;;;;;;;36.10;17.43;;;;;;;5.90;63.11;101679.53;4995187;28;20199;-73
2022/12/20 07:47:37;;;;;;;23.63;15.13;;;;;;;6.17;62.22;101684.56;4993693;28;20627;-71
2022/12/20 07:50:05;;;;;;;37.30;16.73;;;;;;;6.41;61.34;101680.09;4994345;28;20245;-75
2022/12/20 07:52:34;;;;;;;29.23;16.50;;;;;;;6.49;60.83;101681.19;4994226;28;20249;-74
2022/12/20 07:55:04;;;;;;;25.50;14.03;;;;;;;6.11;60.84;101682.38;4994057;28;20261;-71
2022/12/20 07:57:35;;;;;;;184.60;27.40;;;;;;;6.14;61.36;101672.47;4993863;28;20687;-75
2022/12/20 08:00:05;;;;;;;39.47;16.07;;;;;;;6.24;62.15;101672.63;4993828;28;20248;-81
2022/12/20 08:02:35;;;;;;;68.37;18.23;;;;;;;6.32;61.77;101673.69;4994754;28;20226;-76
2022/12/20 08:05:07;;;;;;;277.77;27.73;;;;;;;6.32;62.11;101670.25;4993095;28;20211;-81
2022/12/20 08:07:35;;;;;;;102.63;18.40;;;;;;;6.64;59.88;101676.53;4993937;28;20721;-79
2022/12/20 08:10:02;;;;;;;34.80;16.73;;;;;;;7.02;57.77;101679.72;4994300;28;20192;-74
2022/12/20 08:12:30;;;;;;;26.73;17.27;;;;;;;7.41;56.92;101674.75;4994366;28;20685;-76
2022/12/20 08:14:58;;;;;;;44.53;15.60;;;;;;;7.62;54.51;101665.06;4994825;28;20255;-74
2022/12/20 08:17:25;;;;;;;37.17;18.50;;;;;;;7.89;53.98;101672.56;4994262;28;20194;-73
2022/12/20 08:19:52;;;;;;;57.20;23.47;;;;;;;7.96;55.06;101676.41;4994390;28;20578;-69
2022/12/20 08:22:21;;;;;;;29.47;16.80;;;;;;;8.17;54.44;101662.22;4992656;28;20245;-74
2022/12/20 08:24:48;;;;;;;26.43;15.60;;;;;;;8.35;53.78;101662.53;4994984;28;20261;-73
2022/12/20 08:27:15;;;;;;;23.97;14.60;;;;;;;8.37;53.74;101660.59;4993814;28;20197;-74
2022/12/20 08:29:42;;;;;;;26.27;15.50;;;;;;;8.52;51.86;101654.84;4994188;28;20261;-76
2022/12/20 08:32:09;;;;;;;31.33;14.97;;;;;;;8.51;52.04;101650.53;4992999;28;20803;-75
2022/12/20 08:34:35;;;;;;;23.47;14.00;;;;;;;8.33;52.05;101664.47;4993653;28;20226;-79
2022/12/20 08:37:02;;;;;;;168.03;23.30;;;;;;;8.31;53.72;101647.84;4993949;28;20256;-74
2022/12/20 08:39:30;;;;;;;19.93;13.00;;;;;;;8.50;51.74;101645.34;4993040;28;20197;-75
2022/12/20 08:41:57;;;;;;;18.70;13.43;;;;;;;8.52;50.07;101640.75;4993474;28;20736;-73
2022/12/20 08:44:24;;;;;;;19.03;13.63;;;;;;;8.43;50.00;101638.88;4993343;28;20218;-75
2022/12/20 08:46:51;;;;;;;31.53;18.10;;;;;;;8.46;50.61;101628.03;4993570;28;20281;-73
2022/12/20 08:49:17;;;;;;;21.17;13.70;;;;;;;8.27;52.16;101627.91;4994259;28;20202;-71
2022/12/20 08:51:44;;;;;;;37.73;15.07;;;;;;;8.13;51.92;101620.25;4994290;28;20674;-72
2022/12/20 08:54:11;;;;;;;22.70;14.60;;;;;;;7.91;53.48;101615.06;4993563;28;20210;-73
2022/12/20 08:56:39;;;;;;;24.97;14.60;;;;;;;7.86;53.10;101612.81;4992454;28;20203;-76
2022/12/20 08:59:06;;;;;;;22.43;13.77;;;;;;;7.83;53.31;101597.19;4992942;28;20194;-74
2022/12/20 09:01:33;;;;;;;22.40;14.83;;;;;;;7.85;53.51;101589.13;4993446;28;20214;-72
2022/12/20 09:04:00;;;;;;;28.13;13.70;;;;;;;8.08;53.61;101606.56;5000713;28;20312;-73
2022/12/20 09:06:27;;;;;;;77.17;16.40;;;;;;;8.40;51.80;101602.06;4996970;28;20683;-72
2022/12/20 09:08:54;;;;;;;24.03;14.77;;;;;;;8.48;50.10;101599.59;4993159;28;20260;-73
2022/12/20 09:11:23;;;;;;;36.43;14.80;;;;;;;8.68;50.88;101596.94;4991729;28;20686;-76
2022/12/20 09:13:53;;;;;;;22.53;15.47;;;;;;;8.79;49.43;101590.69;4990684;28;20264;-73
2022/12/20 09:16:22;;;;;;;27.40;18.13;;;;;;;8.92;49.67;101593.94;4990899;28;20187;-72
2022/12/20 09:18:49;;;;;;;25.20;16.80;;;;;;;8.95;48.41;101596.34;4989589;28;20624;-75
2022/12/20 09:21:16;;;;;;;16.87;12.37;;;;;;;8.72;48.48;101576.28;4992869;28;20650;-75
2022/12/20 09:23:43;;;;;;;16.97;12.17;;;;;;;8.87;48.83;101580.25;4992511;28;20222;-75
2022/12/20 09:26:12;;;;;;;16.27;11.00;;;;;;;8.60;48.18;101577.34;4992873;28;20198;-73
2022/12/20 09:28:39;;;;;;;52.40;26.40;;;;;;;8.50;49.28;101566.72;4992523;28;20194;-70
2022/12/20 09:31:10;;;;;;;50.47;15.23;;;;;;;8.44;49.47;101556.66;4979162;28;20257;-72
2022/12/20 09:33:37;;;;;;;25.53;12.63;;;;;;;8.43;51.34;101554.97;4992337;28;20278;-73
2022/12/20 09:36:06;;;;;;;30.90;13.67;;;;;;;8.54;50.30;101556.72;4992817;28;20277;-72
2022/12/20 09:38:33;;;;;;;73.10;14.63;;;;;;;8.74;49.69;101547.88;4992277;28;20194;-74
2022/12/20 09:41:03;;;;;;;18.07;11.77;;;;;;;8.88;47.91;101540.38;4992295;28;20674;-74
2022/12/20 09:43:30;;;;;;;20.70;12.37;;;;;;;8.88;49.71;101534.22;4992004;28;20328;-78
2022/12/20 09:45:59;;;;;;;22.33;12.30;;;;;;;8.69;49.09;101534.16;4992533;28;20807;-77
2022/12/20 09:48:32;;;;;;;16.10;10.93;;;;;;;8.57;49.37;101537.88;4991029;28;20202;-74
2022/12/20 09:51:12;;;;;;;22.47;10.83;;;;;;;8.43;48.49;101532.94;4992652;28;20322;-74
2022/12/20 09:53:52;;;;;;;18.30;10.80;;;;;;;8.18;49.81;101517.47;5009943;28;20205;-73
2022/12/20 09:56:25;;;;;;;11.17;9.73;;;;;;;7.96;50.10;101512.34;5008211;28;20188;-71
2022/12/20 09:58:59;;;;;;;21.77;10.80;;;;;;;8.08;51.17;101511.28;4992666;28;20194;-74
2022/12/20 10:01:28;;;;;;;13.00;10.30;;;;;;;8.33;49.57;101503.78;4992644;28;20280;-73
2022/12/20 10:03:59;;;;;;;14.50;10.77;;;;;;;8.39;48.42;101499.75;4993286;28;20222;-71
2022/12/20 10:06:35;;;;;;;15.00;9.87;;;;;;;8.40;48.31;101501.44;4991792;28;20195;-71
2022/12/20 10:09:04;;;;;;;15.67;11.03;;;;;;;8.42;48.32;101497.66;4993355;28;20574;-79
2022/12/20 10:11:51;;;;;;;34.33;11.83;;;;;;;8.22;50.45;101495.94;4992891;28;20658;-76
2022/12/20 10:14:35;;;;;;;11.53;8.50;;;;;;;7.95;49.50;101492.13;4992492;28;20194;-70
2022/12/20 10:17:05;;;;;;;9.70;8.77;;;;;;;7.93;50.50;101480.84;4992657;28;20194;-72
2022/12/20 10:19:59;;;;;;;29.00;10.37;;;;;;;7.88;50.56;101477.75;4990656;28;21047;-69
2022/12/20 10:22:31;;;;;;;22.60;9.97;;;;;;;7.87;51.58;101481.34;4957496;28;20679;-71
2022/12/20 10:25:10;;;;;;;19.03;10.40;;;;;;;8.10;50.85;101465.19;4999715;28;20661;-70
2022/12/20 10:27:41;;;;;;;12.67;10.20;;;;;;;8.22;49.60;101463.31;4991692;28;20183;-69
2022/12/20 10:30:13;;;;;;;11.73;9.77;;;;;;;7.76;50.29;101445.22;4984788;28;20702;-72
2022/12/20 10:32:42;;;;;;;21.40;11.23;;;;;;;7.82;50.91;101457.09;4992337;28;20182;-72
2022/12/20 10:35:24;;;;;;;22.27;12.77;;;;;;;7.90;51.43;101444.91;4992089;28;20198;-71
2022/12/20 10:37:59;;;;;;;21.63;10.17;;;;;;;7.90;51.90;101439.59;4992351;28;20721;-71
2022/12/20 10:40:28;;;;;;;12.27;10.00;;;;;;;7.83;50.35;101435.78;4991044;28;20193;-74
2022/12/20 10:42:55;;;;;;;12.57;10.10;;;;;;;7.68;50.95;101423.88;4992405;28;20257;-72
2022/12/20 10:45:32;;;;;;;14.53;10.93;;;;;;;7.70;51.68;101421.09;4992464;28;20199;-77
2022/12/20 10:48:00;;;;;;;33.60;12.03;;;;;;;7.69;52.39;101414.13;4991328;28;20182;-73
2022/12/20 10:50:28;;;;;;;15.53;9.60;;;;;;;7.60;51.77;101414.94;4991682;28;20195;-74
2022/12/20 10:53:28;;;;;;;13.27;10.43;;;;;;;8.12;54.53;101396.22;4990688;28;20217;-71
2022/12/20 10:56:13;;;;;;;17.63;11.23;;;;;;;7.95;52.55;101404.78;4968420;28;20250;-71
2022/12/20 10:58:40;;;;;;;16.87;11.40;;;;;;;7.85;51.75;101403.91;4966687;28;20760;-71
2022/12/20 11:01:13;;;;;;;17.87;11.23;;;;;;;8.02;50.75;101400.66;4981432;28;20194;-72
2022/12/20 11:03:53;;;;;;;10.23;9.23;;;;;;;8.10;50.02;101398.19;4992934;28;20211;-73
2022/12/20 11:06:23;;;;;;;16.27;12.83;;;;;;;8.18;50.26;101382.47;4991970;28;20717;-72
2022/12/20 11:08:50;;;;;;;20.03;13.40;;;;;;;8.17;51.03;101383.44;4991689;28;20242;-72
2022/12/20 11:11:20;;;;;;;19.50;13.30;;;;;;;8.14;50.44;101373.13;4991777;28;20222;-73
2022/12/20 11:13:48;;;;;;;19.77;11.87;;;;;;;7.79;51.37;101364.75;4991361;28;20638;-72
2022/12/20 11:16:35;;;;;;;30.47;14.53;;;;;;;7.62;51.95;101357.44;4991919;28;20646;-72
2022/12/20 11:19:30;;;;;;;17.77;11.10;;;;;;;7.74;52.54;101353.75;4991910;28;20716;-73
2022/12/20 11:22:07;;;;;;;25.20;11.10;;;;;;;7.96;51.47;101341.16;4982449;28;20199;-71
2022/12/20 11:24:42;;;;;;;22.77;11.57;;;;;;;7.92;51.02;101346.88;4991568;28;20260;-72
2022/12/20 11:27:20;;;;;;;17.20;11.83;;;;;;;7.93;50.73;101332.66;4992218;28;20178;-73
2022/12/20 11:30:08;;;;;;;16.33;12.23;;;;;;;8.13;50.15;101337.03;4991758;28;20725;-71
2022/12/20 11:32:47;;;;;;;14.50;10.30;;;;;;;8.10;49.35;101337.31;4990172;28;20202;-73
2022/12/20 11:35:19;;;;;;;14.30;11.03;;;;;;;8.03;49.56;101317.63;4992263;28;20249;-72
2022/12/20 11:37:53;;;;;;;25.07;12.30;;;;;;;8.19;48.78;101320.59;4991932;28;20717;-77
2022/12/20 11:40:30;;;;;;;26.90;16.23;;;;;;;8.22;49.04;101323.03;4995737;28;20272;-73